Wyandotte, Oklahoma
Current Conditions -  °F | °C
As of 2:35 AM on Thursday 18 Dec 2014 (Local Time) from KGMJ Reporting Station
Haze Haze  
Wind Chill: 37°   Ceiling: 800
Heat Index: 37°   Visibility: 1.5mi
Dew Point: 37°   Wind: 0mph
Humidity: 100%   Direction: NA
Pressure: 30.19"   Gusts: NA
Location:  36.79°N, 94.73°W
Report Text: KGMJ 180835Z AUTO 00000KT 1 1/2SM BR BKN008 OVC012 03/03 A3019 RMK AO2
Loading
Personal Weather Stations






























Interactive Weather Map New forecast layout! Learn more

10-Day Weather Forecast

Advertisements
Track Severe Weather on mobile